Time;durP1;ratioP1;P1;durP2;ratioP2;P2;SDS_P1;SDS_P2;PMS_P1;PMS_P2;Temp;Humidity;BMP_temperature;BMP_pressure;BME280_temperature;BME280_humidity;BME280_pressure;Samples;Min_cycle;Max_cycle;Signal;HPM_P1;HPM_P2
2023/12/14 00:01:22;;;;;;;109.47;97.70;;;;;;;;;;5099362;28;20040;-67
2023/12/14 00:03:48;;;;;;;101.32;90.85;;;;;;;;;;5096116;28;20135;-68
2023/12/14 00:06:15;;;;;;;98.35;87.75;;;;;;;;;;5109393;28;20508;-67
2023/12/14 00:08:41;;;;;;;89.55;79.65;;;;;;;;;;5094244;28;20044;-67
2023/12/14 00:11:08;;;;;;;85.65;76.78;;;17.20;87.30;;;;;;5075615;28;20051;-68
2023/12/14 00:13:34;;;;;;;85.25;75.93;;;;;;;;;;5090967;28;20112;-68
2023/12/14 00:16:00;;;;;;;80.35;71.72;;;;;;;;;;5095764;28;20053;-67
2023/12/14 00:18:26;;;;;;;75.93;67.95;;;17.00;87.20;;;;;;5077529;28;20070;-68
2023/12/14 00:20:53;;;;;;;71.63;63.95;;;;;;;;;;5114283;28;20070;-68
2023/12/14 00:23:19;;;;;;;66.95;59.75;;;;;;;;;;5095574;28;20455;-68
2023/12/14 00:25:46;;;;;;;65.13;58.25;;;;;;;;;;5103456;28;20090;-68
2023/12/14 00:28:12;;;;;;;63.65;56.80;;;;;;;;;;5075409;28;20108;-68
2023/12/14 00:30:38;;;;;;;60.72;54.42;;;;;;;;;;5074465;28;20040;-67
2023/12/14 00:33:04;;;;;;;56.50;50.63;;;;;;;;;;5106431;28;20481;-68
2023/12/14 00:35:30;;;;;;;56.05;50.05;;;;;;;;;;5078482;28;20382;-68
2023/12/14 00:37:56;;;;;;;52.78;47.08;;;;;;;;;;5074770;28;20044;-68
2023/12/14 00:40:23;;;;;;;48.80;43.70;;;;;;;;;;5092653;28;20040;-67
2023/12/14 00:42:49;;;;;;;47.70;42.65;;;;;;;;;;5093161;28;20083;-67
2023/12/14 00:45:15;;;;;;;46.72;41.83;;;;;;;;;;5058701;28;20048;-68
2023/12/14 00:47:41;;;;;;;45.03;40.22;;;;;;;;;;5075307;28;20052;-68
2023/12/14 00:50:07;;;;;;;44.00;39.38;;;17.00;87.60;;;;;;5078133;28;20065;-68
2023/12/14 00:52:33;;;;;;;41.35;37.15;;;17.00;87.50;;;;;;5075258;28;20558;-68
2023/12/14 00:54:59;;;;;;;38.55;34.55;;;;;;;;;;5093171;28;20032;-68
2023/12/14 00:57:25;;;;;;;36.67;32.78;;;;;;;;;;5074926;28;20405;-68
2023/12/14 00:59:51;;;;;;;35.05;31.35;;;;;;;;;;5074571;28;20051;-68
2023/12/14 01:02:17;;;;;;;34.47;30.80;;;16.90;87.20;;;;;;5045612;28;20375;-68
2023/12/14 01:04:43;;;;;;;34.72;31.08;;;;;;;;;;5108011;28;20047;-68
2023/12/14 01:07:09;;;;;;;32.85;29.38;;;;;;;;;;5041377;28;20055;-67
2023/12/14 01:09:35;;;;;;;30.77;27.50;;;16.90;87.10;;;;;;5075193;28;20079;-68
2023/12/14 01:12:01;;;;;;;31.98;28.70;;;;;;;;;;5057728;28;20086;-67
2023/12/14 01:14:27;;;;;;;30.20;26.98;;;;;;;;;;5074551;28;20048;-67
2023/12/14 01:16:54;;;;;;;27.55;24.55;;;;;;;;;;5092569;28;20440;-68
2023/12/14 01:19:20;;;;;;;26.05;23.25;;;;;;;;;;5057795;28;20055;-67
2023/12/14 01:21:46;;;;;;;25.55;22.83;;;17.10;87.10;;;;;;5075789;28;20049;-67
2023/12/14 01:24:12;;;;;;;25.60;22.55;;;;;;;;;;5094196;28;20047;-67
2023/12/14 01:26:38;;;;;;;23.38;20.88;;;;;;;;;;5094249;28;20052;-68
2023/12/14 01:29:04;;;;;;;23.60;20.75;;;;;;;;;;5074691;28;20105;-68
2023/12/14 01:31:30;;;;;;;21.63;19.33;;;;;;;;;;5073861;28;20055;-67
2023/12/14 01:33:56;;;;;;;22.08;19.15;;;17.30;86.70;;;;;;5109541;28;20039;-68
2023/12/14 01:36:23;;;;;;;21.10;18.73;;;;;;;;;;5094537;28;20413;-68
2023/12/14 01:38:49;;;;;;;20.50;17.23;;;;;;;;;;5094564;28;20040;-68
2023/12/14 01:41:15;;;;;;;19.08;16.40;;;;;;;;;;5090049;28;20043;-67
2023/12/14 01:43:41;;;;;;;19.65;16.17;;;17.30;86.30;;;;;;5093574;28;20123;-67
2023/12/14 01:46:07;;;;;;;20.25;15.40;;;17.20;86.30;;;;;;5070197;28;20181;-67
2023/12/14 01:48:33;;;;;;;18.15;15.38;;;;;;;;;;5094793;28;20058;-68
2023/12/14 01:50:59;;;;;;;16.50;14.07;;;17.30;86.30;;;;;;5111244;28;20039;-67
2023/12/14 01:53:25;;;;;;;17.15;13.80;;;;;;;;;;5112914;28;20047;-68
2023/12/14 01:55:51;;;;;;;15.77;12.88;;;;;;;;;;5100204;28;20044;-67
2023/12/14 01:58:17;;;;;;;15.27;12.57;;;;;;;;;;5074112;28;20048;-67
2023/12/14 02:00:53;;;;;;;16.08;12.98;;;17.30;82.30;;;;;;5093379;28;20478;-68
2023/12/14 02:03:19;;;;;;;15.38;12.43;;;17.30;86.40;;;;;;5096888;28;20059;-68
2023/12/14 02:05:45;;;;;;;14.18;11.95;;;17.10;86.40;;;;;;5114828;28;20039;-68
2023/12/14 02:08:11;;;;;;;13.75;11.55;;;17.10;86.40;;;;;;5098601;28;20050;-68
2023/12/14 02:10:37;;;;;;;14.63;10.85;;;17.20;86.40;;;;;;5089181;28;20074;-68
2023/12/14 02:13:03;;;;;;;13.65;10.93;;;17.20;86.40;;;;;;5077974;28;20056;-68
2023/12/14 02:15:29;;;;;;;13.60;10.68;;;;;;;;;;5062203;28;20122;-68
2023/12/14 02:17:55;;;;;;;13.55;10.70;;;;;;;;;;5096070;28;20054;-68
2023/12/14 02:20:21;;;;;;;13.38;10.27;;;;;;;;;;5095981;28;20036;-68
2023/12/14 02:22:56;;;;;;;11.93;9.00;;;17.10;82.40;;;;;;5078656;28;20138;-68
2023/12/14 02:25:23;;;;;;;12.75;9.75;;;;;;;;;;5091210;28;20122;-68
2023/12/14 02:27:50;;;;;;;11.55;9.18;;;;;;;;;;5093127;28;20134;-68
2023/12/14 02:30:16;;;;;;;11.93;8.93;;;;;;;;;;5088518;27;20713;-68
2023/12/14 02:32:42;;;;;;;10.90;9.10;;;17.30;86.40;;;;;;5079848;27;20098;-68
2023/12/14 02:35:08;;;;;;;12.15;8.27;;;17.10;86.40;;;;;;5077874;28;20056;-68
2023/12/14 02:37:37;;;;;;;11.65;8.40;;;;;;;;;;5077258;28;20051;-68
2023/12/14 02:40:04;;;;;;;12.05;8.13;;;17.00;86.40;;;;;;5095970;28;20072;-68
2023/12/14 02:42:30;;;;;;;10.18;8.02;;;;;;;;;;5060639;28;20122;-68
2023/12/14 02:44:56;;;;;;;9.73;7.53;;;17.00;86.40;;;;;;5108084;28;20127;-68
2023/12/14 02:47:22;;;;;;;9.88;7.45;;;;;;;;;;5038104;27;20048;-68
2023/12/14 02:49:48;;;;;;;9.60;7.15;;;;;;;;;;5088785;28;20118;-68
2023/12/14 02:52:15;;;;;;;10.27;7.22;;;;;;;;;;5113119;28;20048;-67
2023/12/14 02:54:41;;;;;;;12.27;7.22;;;;;;;;;;5064962;28;20521;-67
2023/12/14 02:57:07;;;;;;;9.98;6.88;;;;;;;;;;5085012;28;20042;-68
2023/12/14 02:59:33;;;;;;;10.10;6.20;;;;;;;;;;5060752;28;20040;-67
2023/12/14 03:02:00;;;;;;;9.85;6.70;;;;;;;;;;5091462;28;20059;-67
2023/12/14 03:04:26;;;;;;;8.85;6.60;;;;;;;;;;5080482;28;20180;-67
2023/12/14 03:06:52;;;;;;;9.35;6.50;;;;;;;;;;5068299;28;20458;-67
2023/12/14 03:09:19;;;;;;;8.90;6.07;;;;;;;;;;5074626;28;20538;-68
2023/12/14 03:11:45;;;;;;;8.63;5.60;;;16.90;87.10;;;;;;5095813;28;20059;-68
2023/12/14 03:14:11;;;;;;;9.80;6.30;;;;;;;;;;5096370;28;20042;-68
2023/12/14 03:16:37;;;;;;;9.73;6.00;;;;;;;;;;5076611;28;20083;-68
2023/12/14 03:19:03;;;;;;;8.32;5.95;;;16.70;87.10;;;;;;5062375;28;20490;-67
2023/12/14 03:21:29;;;;;;;8.48;5.68;;;;;;;;;;5095461;28;20054;-68
2023/12/14 03:23:55;;;;;;;8.15;5.57;;;16.70;87.20;;;;;;5084418;28;20119;-68
2023/12/14 03:26:21;;;;;;;10.35;6.15;;;;;;;;;;5093019;28;20147;-67
2023/12/14 03:28:47;;;;;;;8.48;5.63;;;;;;;;;;5096911;28;20047;-67
2023/12/14 03:31:13;;;;;;;8.75;5.20;;;16.60;87.40;;;;;;5068052;28;20556;-67
2023/12/14 03:33:40;;;;;;;8.75;5.50;;;16.60;87.40;;;;;;5083740;28;20051;-68
2023/12/14 03:36:06;;;;;;;9.27;5.38;;;16.50;86.60;;;;;;5064154;28;20040;-68
2023/12/14 03:38:32;;;;;;;7.80;4.72;;;;;;;;;;5076450;28;20042;-67
2023/12/14 03:40:58;;;;;;;8.02;5.30;;;;;;;;;;5077763;28;20044;-68
2023/12/14 03:43:24;;;;;;;7.65;5.13;;;;;;;;;;5094678;28;20097;-68
2023/12/14 03:45:50;;;;;;;8.13;5.10;;;;;;;;;;5094672;28;20126;-68
2023/12/14 03:48:16;;;;;;;7.13;4.65;;;;;;;;;;5094548;28;20447;-68
2023/12/14 03:50:43;;;;;;;7.47;4.53;;;;;;;;;;5090629;28;20051;-68
2023/12/14 03:53:09;;;;;;;8.32;4.95;;;;;;;;;;5096506;28;20083;-68
2023/12/14 03:55:35;;;;;;;8.20;4.95;;;;;;;;;;5114728;28;20059;-67
2023/12/14 03:58:01;;;;;;;7.70;5.13;;;;;;;;;;5110619;28;20409;-68
2023/12/14 04:00:27;;;;;;;7.47;4.80;;;16.40;88.00;;;;;;5093863;28;20046;-68
2023/12/14 04:02:53;;;;;;;7.72;4.78;;;;;;;;;;5090196;28;20048;-67
2023/12/14 04:05:19;;;;;;;7.78;4.63;;;;;;;;;;5096365;28;20405;-68
2023/12/14 04:07:45;;;;;;;7.72;4.50;;;;;;;;;;5075773;28;20450;-68
2023/12/14 04:10:11;;;;;;;7.60;4.68;;;;;;;;;;5078834;28;20044;-68
2023/12/14 04:12:38;;;;;;;8.88;4.65;;;16.10;88.10;;;;;;5090955;28;20477;-68
2023/12/14 04:15:04;;;;;;;9.48;4.90;;;16.10;85.60;;;;;;5090870;28;20043;-68
2023/12/14 04:17:31;;;;;;;8.93;5.10;;;;;;;;;;5075635;28;20131;-68
2023/12/14 04:19:57;;;;;;;8.98;4.97;;;15.90;88.40;;;;;;5075996;28;20079;-68
2023/12/14 04:22:23;;;;;;;8.45;4.90;;;16.00;88.40;;;;;;5075675;28;20051;-67
2023/12/14 04:24:48;;;;;;;8.18;5.05;;;15.90;88.50;;;;;;5069131;28;20048;-68
2023/12/14 04:27:15;;;;;;;8.73;5.00;;;15.90;85.30;;;;;;5077462;28;20086;-68
2023/12/14 04:29:41;;;;;;;8.20;4.80;;;;;;;;;;5078968;28;20120;-68
2023/12/14 04:32:07;;;;;;;7.95;4.78;;;;;;;;;;5088352;28;20139;-68
2023/12/14 04:34:33;;;;;;;8.20;4.72;;;;;;;;;;5093546;28;20043;-68
2023/12/14 04:36:59;;;;;;;8.07;4.70;;;;;;;;;;5078692;28;20134;-68
2023/12/14 04:39:26;;;;;;;8.77;4.78;;;;;;;;;;5099925;28;20496;-67
2023/12/14 04:41:55;;;;;;;8.15;4.55;;;15.70;88.40;;;;;;5075301;28;20052;-68
2023/12/14 04:44:24;;;;;;;8.93;4.55;;;;;;;;;;5085206;28;20433;-68
2023/12/14 04:46:50;;;;;;;8.63;4.57;;;;;;;;;;5095517;28;20051;-67
2023/12/14 04:49:16;;;;;;;8.48;4.70;;;;;;;;;;5087469;28;20397;-67
2023/12/14 04:51:42;;;;;;;7.70;4.78;;;;;;;;;;5068688;28;20080;-67
2023/12/14 04:54:09;;;;;;;8.05;4.85;;;;;;;;;;5061976;28;20523;-68
2023/12/14 04:56:35;;;;;;;6.78;4.68;;;;;;;;;;5091912;28;20044;-68
2023/12/14 04:59:02;;;;;;;7.47;4.80;;;;;;;;;;5064077;28;20056;-68
2023/12/14 05:01:28;;;;;;;9.10;4.60;;;;;;;;;;5093000;28;20397;-68
2023/12/14 05:03:55;;;;;;;8.65;4.97;;;;;;;;;;5093005;28;20043;-68
2023/12/14 05:06:21;;;;;;;8.30;4.70;;;;;;;;;;5087084;28;20127;-68
2023/12/14 05:08:47;;;;;;;8.38;4.78;;;;;;;;;;5099307;28;20040;-68
2023/12/14 05:11:13;;;;;;;9.20;4.82;;;;;;;;;;5092974;28;20445;-68
2023/12/14 05:13:40;;;;;;;11.23;4.70;;;15.40;89.50;;;;;;5094947;28;20520;-68
2023/12/14 05:16:06;;;;;;;8.80;5.10;;;;;;;;;;5095132;28;20397;-68
2023/12/14 05:18:32;;;;;;;8.82;5.00;;;15.40;89.50;;;;;;5110320;28;20645;-68
2023/12/14 05:21:00;;;;;;;9.27;4.90;;;;;;;;;;5092355;28;20039;-68
2023/12/14 05:23:26;;;;;;;10.63;5.28;;;;;;;;;;5082401;28;20383;-68
2023/12/14 05:25:52;;;;;;;8.32;5.28;;;;;;;;;;5112618;28;20127;-68
2023/12/14 05:28:18;;;;;;;7.90;5.20;;;;;;;;;;5088651;28;20075;-68
2023/12/14 05:30:44;;;;;;;9.35;4.95;;;;;;;;;;5074115;28;20397;-68
2023/12/14 05:33:10;;;;;;;8.02;4.97;;;;;;;;;;5074765;28;20140;-68
2023/12/14 05:35:36;;;;;;;7.45;4.75;;;;;;;;;;5074669;28;20101;-68
2023/12/14 05:38:03;;;;;;;7.95;4.65;;;;;;;;;;5078443;28;20048;-67
2023/12/14 05:40:29;;;;;;;7.63;4.60;;;;;;;;;;5104210;28;20401;-68
2023/12/14 05:42:55;;;;;;;7.88;4.65;;;;;;;;;;5074470;28;20109;-68
2023/12/14 05:45:21;;;;;;;8.07;4.82;;;;;;;;;;5105535;28;20481;-67
2023/12/14 05:47:47;;;;;;;9.15;5.25;;;;;;;;;;5094585;28;20048;-68
2023/12/14 05:50:13;;;;;;;8.75;5.20;;;;;;;;;;5080388;28;20059;-68
2023/12/14 05:52:43;;;;;;;7.90;4.90;;;15.10;89.90;;;;;;5091005;28;20063;-67
2023/12/14 05:55:10;;;;;;;8.70;5.53;;;;;;;;;;5100284;28;20080;-67
2023/12/14 05:57:36;;;;;;;9.57;5.20;;;15.30;90.00;;;;;;5103057;28;20188;-67
2023/12/14 06:00:03;;;;;;;9.88;5.05;;;15.40;90.00;;;;;;5102106;28;20043;-68
2023/12/14 06:02:31;;;;;;;7.35;5.18;;;;;;;;;;5062638;28;20044;-68
2023/12/14 06:04:57;;;;;;;10.52;5.20;;;15.30;90.00;;;;;;5107325;28;20031;-68
2023/12/14 06:07:24;;;;;;;9.07;5.38;;;;;;;;;;5080186;28;20048;-68
2023/12/14 06:09:50;;;;;;;8.98;5.63;;;15.10;86.80;;;;;;5096312;28;20036;-68
2023/12/14 06:12:16;;;;;;;7.85;4.88;;;;;;;;;;5098548;28;20071;-67
2023/12/14 06:14:44;;;;;;;9.57;5.03;;;;;;;;;;5067858;28;20036;-68
2023/12/14 06:17:10;;;;;;;8.57;5.30;;;;;;;;;;5112694;28;20366;-68
2023/12/14 06:19:37;;;;;;;7.15;4.95;;;;;;;;;;5109702;28;20431;-68
2023/12/14 06:22:03;;;;;;;9.40;5.38;;;;;;;;;;5074902;28;20397;-68
2023/12/14 06:24:29;;;;;;;9.27;5.57;;;;;;;;;;5092127;28;20079;-68
2023/12/14 06:26:55;;;;;;;7.70;5.13;;;;;;;;;;5092341;28;20434;-68
2023/12/14 06:29:23;;;;;;;9.00;5.28;;;;;;;;;;5093648;28;20497;-68
2023/12/14 06:31:50;;;;;;;8.82;5.85;;;;;;;;;;5080315;28;20177;-68
2023/12/14 06:34:17;;;;;;;8.85;5.65;;;;;;;;;;5091906;28;20500;-68
2023/12/14 06:36:45;;;;;;;9.25;5.55;;;;;;;;;;5072685;28;20441;-68
2023/12/14 06:39:11;;;;;;;8.45;5.63;;;15.10;90.10;;;;;;5074144;28;20040;-68
2023/12/14 06:41:37;;;;;;;8.73;5.20;;;;;;;;;;5073151;28;20059;-67
2023/12/14 06:44:03;;;;;;;10.43;5.85;;;15.10;90.20;;;;;;5063425;28;20396;-68
2023/12/14 06:46:29;;;;;;;10.30;5.72;;;15.10;90.20;;;;;;5105007;28;20036;-67
2023/12/14 06:48:55;;;;;;;8.23;5.20;;;;;;;;;;5089305;28;20489;-66
2023/12/14 06:51:24;;;;;;;8.85;5.40;;;15.00;87.00;;;;;;5062719;28;20079;-68
2023/12/14 06:53:51;;;;;;;9.48;5.72;;;;;;;;;;5060980;28;20446;-68
2023/12/14 06:56:17;;;;;;;11.45;5.97;;;;;;;;;;5080148;28;20055;-67
2023/12/14 06:58:44;;;;;;;9.45;5.47;;;15.00;87.30;;;;;;5060902;28;20127;-67
2023/12/14 07:01:14;;;;;;;8.35;5.40;;;15.10;87.60;;;;;;5072555;28;20083;-67
2023/12/14 07:03:45;;;;;;;9.60;6.35;;;;;;;;;;5106882;28;20044;-67
2023/12/14 07:06:13;;;;;;;10.25;6.18;;;14.90;90.20;;;;;;5083354;28;20044;-68
2023/12/14 07:08:40;;;;;;;10.52;6.53;;;;;;;;;;5077462;28;20059;-68
2023/12/14 07:11:07;;;;;;;9.70;6.10;;;14.70;87.20;;;;;;5094552;28;20131;-68
2023/12/14 07:13:35;;;;;;;10.15;6.25;;;;;;;;;;5095072;28;20048;-67
2023/12/14 07:16:07;;;;;;;8.93;6.10;;;14.90;87.40;;;;;;5076793;28;20044;-66
2023/12/14 07:18:34;;;;;;;17.30;6.13;;;;;;;;;;5095069;27;20086;-68
2023/12/14 07:21:01;;;;;;;40.08;25.45;;;;;;;;;;5077486;28;20040;-68
2023/12/14 07:23:27;;;;;;;85.25;66.97;;;;;;;;;;5111601;28;20044;-68
2023/12/14 07:25:53;;;;;;;195.05;72.40;;;;;;;;;;5114536;28;20039;-67
2023/12/14 07:28:19;;;;;;;212.80;76.10;;;;;;;;;;5111928;28;20040;-68
2023/12/14 07:30:46;;;;;;;216.27;122.15;;;;;;;;;;5113925;28;20039;-69
2023/12/14 07:33:12;;;;;;;172.77;118.53;;;;;;;;;;5095474;28;20123;-68
2023/12/14 07:35:39;;;;;;;146.18;103.18;;;;;;;;;;5100975;27;20070;-68
2023/12/14 07:38:05;;;;;;;132.32;94.80;;;;;;;;;;5105770;27;20486;-69
2023/12/14 07:40:30;;;;;;;112.03;86.35;;;15.30;90.40;;;;;;5093983;28;20048;-69
2023/12/14 07:42:56;;;;;;;101.70;81.38;;;15.50;90.30;;;;;;5082649;28;20097;-69
2023/12/14 07:45:22;;;;;;;94.22;73.15;;;;;;;;;;5094419;28;20481;-68
2023/12/14 07:47:48;;;;;;;83.72;69.18;;;;;;;;;;5094134;28;20047;-68
2023/12/14 07:50:15;;;;;;;82.85;65.20;;;;;;;;;;5076419;28;20440;-68
2023/12/14 07:52:41;;;;;;;72.70;60.70;;;;;;;;;;5095251;28;20093;-68
2023/12/14 07:55:07;;;;;;;63.33;56.53;;;16.60;88.90;;;;;;5076021;28;20040;-68
2023/12/14 07:57:33;;;;;;;89.30;54.10;;;;;;;;;;5108756;28;20059;-68
2023/12/14 08:00:00;;;;;;;68.97;52.75;;;;;;;;;;5093098;28;20401;-68
2023/12/14 08:02:26;;;;;;;66.10;52.50;;;;;;;;;;5094820;28;20478;-69
2023/12/14 08:04:52;;;;;;;93.18;82.47;;;16.60;88.10;;;;;;5114358;28;20046;-69
2023/12/14 08:07:18;;;;;;;76.32;68.78;;;;;;;;;;5102847;27;20504;-69
2023/12/14 08:09:44;;;;;;;70.22;63.20;;;16.90;87.50;;;;;;5097953;28;20051;-70
2023/12/14 08:12:11;;;;;;;72.68;63.80;;;;;;;;;;5112233;28;20036;-69
2023/12/14 08:14:40;;;;;;;71.57;62.28;;;17.60;87.40;;;;;;5076931;28;20071;-70
2023/12/14 08:17:07;;;;;;;60.58;54.78;;;17.40;87.00;;;;;;5103779;28;20391;-70
2023/12/14 08:19:32;;;;;;;58.70;52.63;;;17.50;86.70;;;;;;5093504;28;20119;-70
2023/12/14 08:21:59;;;;;;;56.53;47.72;;;;;;;;;;5093783;27;20044;-69
2023/12/14 08:24:25;;;;;;;50.50;45.05;;;17.60;86.20;;;;;;5103725;28;20051;-69
2023/12/14 08:26:52;;;;;;;45.45;40.47;;;;;;;;;;5113902;28;20481;-70
2023/12/14 08:29:17;;;;;;;42.63;38.50;;;17.30;85.80;;;;;;5114197;28;20396;-69
2023/12/14 08:31:44;;;;;;;40.47;36.13;;;;;;;;;;5094210;28;20122;-69
2023/12/14 08:34:10;;;;;;;38.65;33.38;;;;;;;;;;5104696;28;20044;-69
2023/12/14 08:36:36;;;;;;;35.05;31.35;;;17.20;85.40;;;;;;5111290;28;20083;-69
2023/12/14 08:39:03;;;;;;;33.08;29.67;;;17.10;85.50;;;;;;5093495;28;20511;-70
2023/12/14 08:41:29;;;;;;;30.08;26.98;;;17.10;85.50;;;;;;5093475;28;20465;-69
2023/12/14 08:43:55;;;;;;;27.60;24.80;;;;;;;;;;5088000;27;20042;-71
2023/12/14 08:46:22;;;;;;;26.63;23.77;;;;;;;;;;5085577;28;20051;-69
2023/12/14 08:48:48;;;;;;;26.30;23.33;;;16.80;85.30;;;;;;5093850;28;20054;-69
2023/12/14 08:51:15;;;;;;;24.40;21.33;;;;;;;;;;5093365;28;20095;-70
2023/12/14 08:53:41;;;;;;;23.50;19.98;;;;;;;;;;5074728;28;20083;-69
2023/12/14 08:56:08;;;;;;;28.30;20.23;;;16.90;83.00;;;;;;5074750;28;20101;-69
2023/12/14 08:58:34;;;;;;;60.60;44.40;;;16.90;85.50;;;;;;5090794;28;20126;-69
2023/12/14 09:01:00;;;;;;;55.15;42.60;;;;;;;;;;5089085;28;20201;-71
2023/12/14 09:03:27;;;;;;;45.58;35.13;;;;;;;;;;5059072;27;21291;-70
2023/12/14 09:05:53;;;;;;;41.33;32.75;;;;;;;;;;5077989;28;20065;-70
2023/12/14 09:08:21;;;;;;;40.33;31.45;;;16.30;82.70;;;;;;5076792;28;20104;-69
2023/12/14 09:10:47;;;;;;;35.30;28.05;;;16.50;85.30;;;;;;5075926;28;20104;-67
2023/12/14 09:13:17;;;;;;;41.58;27.67;;;;;;;;;;5099716;28;20399;-68
2023/12/14 09:15:43;;;;;;;58.58;52.88;;;;;;;;;;5077174;28;20079;-69
2023/12/14 09:18:09;;;;;;;42.28;37.75;;;;;;;;;;5062269;28;20470;-69
2023/12/14 09:20:37;;;;;;;43.03;34.92;;;16.60;85.20;;;;;;5093628;28;20493;-69
2023/12/14 09:23:03;;;;;;;35.80;30.77;;;;;;;;;;5075633;28;20059;-69
2023/12/14 09:25:29;;;;;;;33.40;28.42;;;16.60;84.80;;;;;;5093049;27;20494;-69
2023/12/14 09:27:55;;;;;;;28.88;25.80;;;16.80;84.60;;;;;;5092021;28;20040;-69
2023/12/14 09:30:21;;;;;;;29.02;24.27;;;;;;;;;;5099359;28;20039;-69
2023/12/14 09:32:48;;;;;;;27.95;22.63;;;16.90;84.30;;;;;;5104026;28;20050;-71
2023/12/14 09:35:14;;;;;;;24.00;21.30;;;;;;;;;;5058699;28;20054;-68
2023/12/14 09:37:41;;;;;;;25.02;20.88;;;;;;;;;;5094959;28;20100;-69
2023/12/14 09:40:08;;;;;;;24.83;19.75;;;;;;;;;;5111895;28;20051;-69
2023/12/14 09:42:37;;;;;;;24.15;17.73;;;;;;;;;;5110839;28;20044;-69
2023/12/14 09:45:03;;;;;;;21.30;17.25;;;16.80;84.30;;;;;;5074501;28;20044;-69
2023/12/14 09:47:29;;;;;;;19.27;16.52;;;;;;;;;;5098569;28;20036;-69
2023/12/14 09:49:55;;;;;;;19.75;15.57;;;;;;;;;;5092687;28;20040;-69
2023/12/14 09:52:22;;;;;;;19.35;15.32;;;;;;;;;;5075337;28;20397;-70
2023/12/14 09:54:48;;;;;;;16.83;14.20;;;16.60;84.20;;;;;;5075835;28;20127;-69
2023/12/14 09:57:14;;;;;;;19.08;13.82;;;16.60;84.20;;;;;;5111093;28;20126;-69
2023/12/14 09:59:41;;;;;;;17.35;13.27;;;16.50;84.20;;;;;;5077959;28;20097;-70
2023/12/14 10:02:14;;;;;;;17.92;12.82;;;16.60;81.90;;;;;;5094945;28;20043;-69
2023/12/14 10:04:41;;;;;;;17.00;12.32;;;;;;;;;;5112369;28;20101;-69
2023/12/14 10:07:07;;;;;;;16.35;12.63;;;;;;;;;;5103997;28;20051;-69
2023/12/14 10:09:33;;;;;;;17.40;11.85;;;;;;;;;;5108264;28;20055;-67
2023/12/14 10:12:04;;;;;;;25.02;14.35;;;;;;;;;;5106647;28;20420;-68
2023/12/14 10:14:30;;;;;;;20.20;13.52;;;;;;;;;;5094191;28;20058;-67
2023/12/14 10:16:56;;;;;;;89.72;72.85;;;16.50;84.30;;;;;;5110842;28;20040;-68
2023/12/14 10:19:22;;;;;;;142.15;128.77;;;;;;;;;;5104309;28;20051;-69
2023/12/14 10:21:49;;;;;;;139.95;128.10;;;;;;;;;;5096783;28;20044;-68
2023/12/14 10:24:15;;;;;;;101.85;92.85;;;;;;;;;;5112575;28;20046;-68
2023/12/14 10:26:41;;;;;;;92.78;84.30;;;;;;;;;;5088657;28;20054;-68
2023/12/14 10:29:09;;;;;;;82.90;75.88;;;;;;;;;;5102357;28;20043;-68
2023/12/14 10:31:37;;;;;;;79.43;72.05;;;;;;;;;;5085862;27;20056;-68
2023/12/14 10:34:04;;;;;;;70.53;64.55;;;;;;;;;;5097416;28;20052;-68
2023/12/14 10:36:30;;;;;;;63.00;57.10;;;;;;;;;;5110166;28;20044;-69
2023/12/14 10:39:00;;;;;;;55.95;51.20;;;;;;;;;;5097448;28;20481;-67
2023/12/14 10:41:27;;;;;;;50.90;46.22;;;;;;;;;;5109791;28;20048;-68
2023/12/14 10:43:56;;;;;;;46.83;42.42;;;17.50;77.90;;;;;;5105315;28;20044;-69
2023/12/14 10:46:22;;;;;;;43.35;39.20;;;;;;;;;;5083309;28;20048;-68
2023/12/14 10:48:51;;;;;;;39.58;36.00;;;17.50;81.80;;;;;;5095879;28;20131;-69
2023/12/14 10:51:21;;;;;;;37.72;34.10;;;17.50;79.20;;;;;;5081895;28;20036;-69
2023/12/14 10:53:48;;;;;;;38.88;34.90;;;;;;;;;;5066437;28;20055;-68
2023/12/14 10:56:14;;;;;;;37.35;33.63;;;;;;;;;;5121185;27;20047;-68
2023/12/14 10:58:51;;;;;;;34.72;31.33;;;17.40;79.40;;;;;;5116234;27;20142;-68
2023/12/14 11:01:19;;;;;;;32.65;29.23;;;;;;;;;;5087820;27;20055;-69
2023/12/14 11:03:45;;;;;;;30.70;27.65;;;;;;;;;;5071514;28;20040;-69
2023/12/14 11:06:22;;;;;;;27.58;24.38;;;;;;;;;;5067834;28;20103;-69
2023/12/14 11:08:48;;;;;;;25.17;22.58;;;17.40;81.70;;;;;;5080229;28;20128;-69
2023/12/14 11:11:20;;;;;;;24.05;21.67;;;17.20;81.50;;;;;;5085966;28;20072;-69
2023/12/14 11:13:52;;;;;;;;;;;17.40;79.10;;;;;;5089902;28;20052;-69
2023/12/14 11:16:21;;;;;;;20.65;18.45;;;17.40;79.20;;;;;;5060182;28;19920;-70
2023/12/14 11:18:47;;;;;;;19.15;16.92;;;;;;;;;;5077619;28;20405;-69
2023/12/14 11:21:24;;;;;;;17.13;15.20;;;;;;;;;;5089502;28;20036;-68
2023/12/14 11:23:51;;;;;;;16.13;14.48;;;;;;;;;;5082349;28;20075;-67
2023/12/14 11:26:23;;;;;;;16.40;14.02;;;17.20;77.90;;;;;;5097580;28;20047;-68
2023/12/14 11:28:50;;;;;;;18.80;14.02;;;;;;;;;;5058192;27;20048;-68
2023/12/14 11:31:16;;;;;;;17.92;13.32;;;16.90;81.70;;;;;;5092169;28;20047;-69
2023/12/14 11:33:44;;;;;;;18.35;13.82;;;16.80;79.20;;;;;;5069033;28;20094;-70
2023/12/14 11:36:11;;;;;;;14.63;11.80;;;16.90;82.00;;;;;;5078896;28;20055;-68
2023/12/14 11:38:37;;;;;;;20.95;13.48;;;;;;;;;;5112449;28;20477;-68
2023/12/14 11:41:04;;;;;;;24.80;15.07;;;16.70;82.10;;;;;;5114807;28;20044;-69
2023/12/14 11:43:30;;;;;;;23.52;13.52;;;;;;;;;;5106688;28;20047;-69
2023/12/14 11:45:56;;;;;;;19.27;13.07;;;;;;;;;;5094804;28;20435;-69
2023/12/14 11:48:22;;;;;;;20.95;12.65;;;;;;;;;;5094394;28;20044;-68
2023/12/14 11:50:49;;;;;;;18.10;12.07;;;;;;;;;;5094455;28;20473;-68
2023/12/14 11:53:15;;;;;;;18.75;12.10;;;;;;;;;;5098116;28;20039;-69
2023/12/14 11:55:41;;;;;;;19.02;11.73;;;16.70;82.70;;;;;;5119360;27;20039;-68
2023/12/14 11:58:08;;;;;;;17.05;10.95;;;;;;;;;;5094596;28;20526;-69
2023/12/14 12:00:37;;;;;;;18.67;11.63;;;;;;;;;;5075120;28;20043;-69
2023/12/14 12:03:10;;;;;;;16.20;11.13;;;;;;;;;;5093967;28;20044;-68
2023/12/14 12:05:39;;;;;;;;;;;16.30;80.30;;;;;;5110283;27;20397;-69
2023/12/14 12:08:06;;;;;;;14.70;9.55;;;;;;;;;;5111196;28;19938;-68
2023/12/14 12:10:32;;;;;;;13.85;10.27;;;;;;;;;;5099329;28;20059;-68
2023/12/14 12:13:02;;;;;;;17.60;10.50;;;16.60;78.70;;;;;;5093886;28;20083;-68
2023/12/14 12:15:28;;;;;;;26.33;16.63;;;;;;;;;;5094658;28;20111;-68
2023/12/14 12:17:55;;;;;;;67.65;60.50;;;;;;;;;;5099396;28;20043;-68
2023/12/14 12:20:21;;;;;;;42.08;37.08;;;16.60;79.40;;;;;;5075820;28;20036;-69
2023/12/14 12:22:47;;;;;;;40.72;31.30;;;;;;;;;;5075584;28;20048;-69
2023/12/14 12:25:13;;;;;;;32.00;27.13;;;;;;;;;;5060033;28;20039;-69
2023/12/14 12:27:40;;;;;;;27.60;23.80;;;17.00;82.10;;;;;;5111697;28;20469;-69
2023/12/14 12:30:08;;;;;;;26.70;23.02;;;17.20;82.00;;;;;;5106439;28;20036;-70
2023/12/14 12:32:34;;;;;;;24.98;20.40;;;;;;;;;;5112765;28;20087;-67
2023/12/14 12:35:00;;;;;;;21.98;19.00;;;;;;;;;;5095214;28;20040;-68
2023/12/14 12:37:26;;;;;;;20.52;18.33;;;17.20;81.20;;;;;;5108537;27;20105;-69
2023/12/14 12:39:52;;;;;;;21.25;17.00;;;17.30;81.10;;;;;;5075504;28;20087;-68
2023/12/14 12:42:19;;;;;;;21.58;17.05;;;;;;;;;;5091090;28;20574;-68
2023/12/14 12:44:45;;;;;;;18.38;14.10;;;;;;;;;;5110627;28;20044;-68
2023/12/14 12:47:11;;;;;;;17.80;13.98;;;;;;;;;;5106429;28;20040;-69
2023/12/14 12:49:38;;;;;;;20.90;13.38;;;;;;;;;;5113215;28;20400;-68
2023/12/14 12:52:04;;;;;;;17.17;13.23;;;17.20;80.90;;;;;;5111094;28;20405;-68
2023/12/14 12:54:32;;;;;;;17.42;12.60;;;;;;;;;;5093536;28;20549;-68
2023/12/14 12:56:59;;;;;;;17.52;12.30;;;;;;;;;;5104067;28;20051;-67
2023/12/14 12:59:25;;;;;;;158.90;28.77;;;;;;;;;;5093128;28;20048;-68
2023/12/14 13:01:51;;;;;;;235.75;39.65;;;;;;;;;;5109151;27;20035;-67
2023/12/14 13:04:20;;;;;;;294.92;49.53;;;17.00;78.10;;;;;;5107642;27;20087;-68
2023/12/14 13:06:48;;;;;;;199.73;35.88;;;17.00;78.70;;;;;;5074917;28;20543;-67
2023/12/14 13:09:16;;;;;;;159.63;29.42;;;17.00;81.30;;;;;;5101558;27;20043;-68
2023/12/14 13:11:43;;;;;;;126.43;26.00;;;17.10;79.10;;;;;;5075620;28;20505;-67
2023/12/14 13:14:09;;;;;;;119.40;23.48;;;17.00;81.30;;;;;;5082094;28;20485;-67
2023/12/14 13:16:36;;;;;;;112.90;22.40;;;;;;;;;;5075212;28;20036;-68
2023/12/14 13:19:03;;;;;;;75.47;19.00;;;16.90;81.10;;;;;;5071721;28;20438;-68
2023/12/14 13:21:30;;;;;;;82.05;18.00;;;16.90;77.60;;;;;;5091630;28;20054;-68
2023/12/14 13:23:59;;;;;;;54.47;16.15;;;;;;;;;;5074643;28;20047;-68
2023/12/14 13:26:25;;;;;;;47.05;13.38;;;;;;;;;;5106266;28;20035;-67
2023/12/14 13:28:52;;;;;;;38.90;19.77;;;16.60;79.30;;;;;;5087620;28;20119;-67
2023/12/14 13:31:18;;;;;;;43.20;19.33;;;;;;;;;;5075091;28;20123;-68
2023/12/14 13:33:44;;;;;;;32.80;14.32;;;;;;;;;;5092497;28;20044;-68
2023/12/14 13:36:10;;;;;;;28.25;15.50;;;;;;;;;;5080431;28;20040;-68
2023/12/14 13:38:37;;;;;;;26.65;14.57;;;;;;;;;;5068622;28;20056;-68
2023/12/14 13:41:03;;;;;;;27.00;13.98;;;;;;;;;;5092457;28;20044;-69